Kinetic One Castle Combe TT - Race 5
Skip Navigation Links
Results
Leaderboard
DB Max TT Series
Details
Smartphone Results
12 Aug 2015
HyperLink
Page 1 of 2 (51 items)
[1]2
Pos
Bib No
Fav
Share
Name
Time
Category
Cat Pos
Gender
Gen Pos
Club
Split 1
G/Pos
Lap 1
G/Pos
Lap 2
G/Pos
Lap 3
G/Pos
Lap 4
G/Pos
Lap 5
G/Pos
153Ben ANSTIE20:46.76Sen1Male173 DEGREES1:39.1043:51.6213:50.2813:47.0413:50.5113:48.201
225Pete KIBBLE21:18.79Jun1Male2Velocity Global Bike1:37.4433:55.7223:55.6823:57.4323:56.8023:55.712
344Jon PRIDHAM21:47.30Vet1Male3VECTIS ROADS CYCLING CLUB (VRCC) - ISLE OF WIGHT1:39.9754:00.8544:00.6134:01.7734:01.8034:02.293
442Nathan HUYNH22:18.32Jun2Male4COTSWOLD VELDRIJDEN1:35.0514:03.3434:08.9354:14.1384:09.6544:07.214
554Dominic WHITE22:24.85Sen2Male5AVONLEA TREASURE1:48.22164:00.1364:06.8744:08.8044:12.4954:08.335
647Harry PALMER22:30.86Jun3Male6CYCOLOGY1:36.1424:07.5854:11.6064:13.6974:13.3564:08.496
743Martin ALDAM22:52.03Vet2Male7FROME AND DISTRICT WHEELERS1:45.83114:05.7174:12.1674:12.3554:17.6794:18.3010
848Paul LAMBERT22:55.62Vet3Male8Chippenham Wheelers1:49.62184:11.88124:15.23104:12.9364:16.1774:09.777
937Phil KRUSE22:56.38Vet4Male9 1:42.8274:10.8384:13.5084:16.35104:17.2684:15.618
1036Michael MILSTEAD22:59.71Sen3Male10CALNE SMARTT1:44.3694:09.7894:13.6794:16.2494:18.15104:17.499
1149Ben SKINNER23:27.60Sen4Male11VIBE FITNESS BATH1:41.8864:13.06104:19.01114:22.02114:27.95144:23.6613
1255Danny LAKE23:33.79Vet5Male12 1:43.0984:15.11114:21.86124:24.10144:25.17124:24.4514
135Andy MORGAN23:35.80Vet6Male13KINETIC ONE1:46.33134:19.65134:23.37134:23.40124:23.92114:19.1111
1426Ian MOORE23:50.88SupVet1Male14CYCOLOGY1:45.73104:25.32154:27.99154:23.83134:25.78134:22.2112
1538Rich SHIRLEY24:05.95Sen5Male15THE TRIATHLON SHOP1:47.41154:21.98144:26.08144:30.36154:28.64154:31.4617
1641Tamara DAVENNE24:09.29Sen1Female1ZAPPI'S WOMEN RT2:03.2384:21.7134:23.2214:28.5524:27.9014:24.661
1734Claire HANN24:10.96Sen2Female2BIKESCIENCE1:54.2464:26.1424:26.4724:26.0614:29.6524:28.362
1828Robert SEYMOUR24:26.56Vet7Male16ARMY TRIATHLON1:48.92174:34.78194:34.55174:30.43164:31.20164:26.6715
1929Anna SEYMOUR24:39.87Sen3Female3ARMY TRIATHLON1:49.8724:35.1644:35.7934:33.9734:34.4334:30.633
2057Duncan LORENCE24:44.26Vet8Male17 1:46.15124:25.24164:31.93164:39.76204:42.58224:38.5822
2127Clive SHIPWAY24:50.42Sen6Male18Src1:46.61144:35.22174:38.22194:37.68174:40.27194:32.4018
2224Paul CARTER24:56.77Vet9Male19DB MAX EVENTS1:49.84194:32.65184:36.20184:38.65184:41.57204:37.8421
237Jonathan SINCLAIR25:00.94SupVet2Male20Ngmcc1:52.83224:35.45204:39.25204:39.77214:37.93184:35.7019
2432Sian CAHILL25:03.64Sen4Female4ZAPPI'S RACING TEAM1:50.2234:30.1314:39.8144:42.2144:41.5244:39.735
2523Matt TIBBLES25:07.29Sen7Male21KINETIC ONE1:55.54264:41.16244:41.95224:39.29194:42.07214:27.2716
2617Ray PERKINS25:25.15SupVet3Male22PSYCLEWERX1:59.60314:43.44264:45.58244:42.03224:37.24174:37.2520
2715Caitlin PETERS25:29.41Jun1Female5FAREHAM WHEELERS CC1:51.6044:41.7064:52.0464:44.9554:44.2854:34.834
286Mike COX25:43.02SupVet4Male23 1:56.34274:39.91214:41.64214:49.67244:45.91234:49.5326
2935Debbie LEE25:46.40Vet1Female6GLOUCESTER AC1:49.2014:40.5054:46.3054:50.2064:50.3064:49.907
3031Martin NEILL25:57.50Vet10Male24FLYING MONK TRIATHLON CLUB1:54.61254:42.01234:44.91234:50.02254:51.65254:54.2929
3139Pete WOOD26:00.69Sen8Male25 1:59.71324:36.81224:47.59254:55.53264:51.24244:49.8027
3214John BUSH26:01.78SupVet5Male26MAIDENHEAD & DISTRICT CYCLING CLUB1:54.52244:46.87254:49.66264:49.42234:52.88264:48.4123
3359Kate DERRICK26:18.00Sen5Female7WESTONBIRT TRI CLUB1:52.4554:53.4074:55.2974:54.5774:54.7174:47.556
3458Graham HOWELL26:20.97Sen9Male27CALNE SMARTT1:51.14204:53.94274:52.93284:55.79274:57.66294:49.4825
3522Will LAMBERT26:22.46Jun4Male28Chippenham Wheelers1:58.26304:46.99284:51.56275:00.14294:56.58284:48.9224
3619Freddie DAVIS26:54.95Sen10Male29 1:53.33234:58.10295:02.64304:59.82284:55.78275:05.2733
3746Mark WILSON27:01.23SupVet6Male30Cheddar Cycle Club2:03.76354:53.67305:02.44295:06.86315:02.79314:51.6928
3856Bethany SIMMONDS27:11.04Sen6Female8BAD TRI1:58.8074:55.6385:07.2085:04.2885:05.1384:59.988
398George SCULLY27:15.75SupVet601Male31Glos City Cc2:02.34345:08.37355:05.07325:02.25305:02.59304:55.1130
4018Nick GLIDDON27:26.93Vet11Male32 1:58.00295:02.07315:04.11315:10.44325:09.62325:02.6731
4152Nigel EVANS27:53.72Vet12Male33DB MAX EVENTS2:04.04364:59.08335:11.13335:11.55335:18.25355:09.6635
4260Hannah MAYNARD27:57.15Jun2Female9SALT AND SHAM CYCLE CLUB2:06.5295:16.80105:15.3595:10.3195:07.2595:00.919
4350Phil WELDON28:01.09Sen11Male34 1:57.32285:06.21345:13.38355:13.87355:19.57365:10.7236
4410Nigel SHIRES28:06.39SupVet7Male35 2:09.47395:12.92375:12.71345:11.70345:12.19335:07.3834
452James CANFER28:07.35Sen12Male36 1:51.19215:11.48325:22.72365:21.73365:17.29345:02.9332
4621Belinda WILSON28:49.76SupVet1Female10WESTON ATHLETIC CLUB2:08.59105:10.1895:18.79105:27.00105:24.88105:20.3110
479Malcolm SHIPWAY29:04.82SupVet602Male37Src2:00.88335:17.40365:26.62375:27.55385:29.35385:22.9937
4811Graham HEWSON29:21.38SupVet603Male38SIMONSTRONG CAPAIGNERS - MEDIA VELO2:06.11385:25.68395:30.31395:27.44375:25.21375:26.6139
4951Tim HOGG29:25.14Sen13Male39 2:05.85375:21.12385:28.21385:31.36395:32.90395:25.6938
5020Sarah MOORE30:55.73Vet2Female11Kibble Coaching2:27.00125:48.22125:46.59115:39.71115:40.28115:33.9211
Page 1 of 2 (51 items)
[1]2
fb

HyperLink Copyright (c) G Vincent, 2018